Terminal Aerodrome Forecast
Issued by NWS Shreveport, LA

Home | Current Version | Previous Version | Text Only | Print | Product List | Glossary On
Versions: 1 2 3 4 5 6 7 8 9 10 11 12 13 14 15 16
961
FTUS44 KSHV 260520
TAFMLU
TAF
KMLU 260520Z 2606/2706 00000KT P6SM SKC
      TEMPO 2609/2612 1SM BR
     FM261200 00000KT 5SM BR SKC
      TEMPO 2612/2615 P6SM NSW
     FM261500 09003KT P6SM SCT030 SCT250
     FM261700 07004KT P6SM SCT035 SCT050 SCT250
     FM270000 06003KT P6SM SCT060 SCT250=

USA.gov is the U.S. government's official web portal to all federal, state and local government web resources and services.